createdAt,value
2023-03-21T00:01:22.326Z,8.42
2023-03-21T00:06:25.093Z,8.41
2023-03-21T00:11:28.009Z,8.44
2023-03-21T00:16:34.379Z,8.42
2023-03-21T00:22:05.948Z,8.40
2023-03-21T00:27:30.262Z,8.40
2023-03-21T00:32:35.600Z,8.45
2023-03-21T00:37:43.029Z,8.42
2023-03-21T00:42:46.314Z,8.45
2023-03-21T00:47:50.551Z,8.48
2023-03-21T00:52:53.392Z,8.49
2023-03-21T00:58:01.888Z,8.50
2023-03-21T01:03:21.291Z,8.50
2023-03-21T01:08:33.069Z,8.49
2023-03-21T01:13:52.877Z,8.50
2023-03-21T01:19:02.109Z,8.50
2023-03-21T01:24:08.346Z,8.49
2023-03-21T01:29:11.832Z,8.49
2023-03-21T01:34:16.081Z,8.49
2023-03-21T01:39:19.070Z,8.49
2023-03-21T01:44:25.030Z,8.51
2023-03-21T01:49:34.462Z,8.51
2023-03-21T01:54:56.462Z,8.52
2023-03-21T02:00:02.478Z,8.54
2023-03-21T02:05:28.751Z,8.51
2023-03-21T02:10:32.806Z,8.52
2023-03-21T02:15:38.505Z,8.53
2023-03-21T02:21:42.843Z,8.53
2023-03-21T02:27:04.096Z,8.50
2023-03-21T02:32:31.549Z,8.51
2023-03-21T02:37:46.813Z,8.52
2023-03-21T02:43:01.410Z,8.52
2023-03-21T02:48:20.187Z,8.51
2023-03-21T02:53:33.664Z,8.50
2023-03-21T02:58:40.067Z,8.50
2023-03-21T03:03:43.201Z,8.52
2023-03-21T03:09:02.701Z,8.51
2023-03-21T03:14:56.082Z,8.51
2023-03-21T03:20:22.073Z,8.51
2023-03-21T03:25:42.122Z,8.52
2023-03-21T03:31:07.093Z,8.52
2023-03-21T03:36:33.607Z,8.51
2023-03-21T03:42:21.832Z,8.49
2023-03-21T03:47:32.250Z,8.52
2023-03-21T03:52:50.049Z,8.55
2023-03-21T03:57:59.708Z,8.56
2023-03-21T04:03:02.600Z,8.54
2023-03-21T04:08:06.542Z,8.56
2023-03-21T04:13:17.553Z,8.57
2023-03-21T04:18:26.462Z,8.54
2023-03-21T04:23:30.415Z,8.54
2023-03-21T04:28:36.271Z,8.54
2023-03-21T04:34:00.249Z,8.55
2023-03-21T04:39:04.847Z,8.56
2023-03-21T04:44:10.676Z,8.49
2023-03-21T04:49:14.506Z,8.48
2023-03-21T04:54:19.289Z,8.49
2023-03-21T04:59:23.402Z,8.51
2023-03-21T05:04:27.374Z,8.51
2023-03-21T05:09:31.862Z,8.50
2023-03-21T05:14:36.025Z,8.52
2023-03-21T05:19:40.492Z,8.52
2023-03-21T05:24:43.386Z,8.54
2023-03-21T05:29:54.374Z,8.53
2023-03-21T05:34:57.383Z,8.53
2023-03-21T05:40:00.331Z,8.49
2023-03-21T05:45:09.312Z,8.50
2023-03-21T05:50:14.220Z,8.52
2023-03-21T05:55:20.471Z,8.47
2023-03-21T06:00:25.034Z,8.45
2023-03-21T06:05:50.405Z,8.47
2023-03-21T06:10:58.746Z,8.55
2023-03-21T06:16:03.618Z,8.59
2023-03-21T06:21:08.953Z,8.62
2023-03-21T06:26:11.860Z,8.68
2023-03-21T06:31:16.346Z,8.71
2023-03-21T06:36:19.958Z,8.73
2023-03-21T06:41:22.853Z,8.77
2023-03-21T06:46:34.780Z,8.84
2023-03-21T06:51:38.768Z,8.87
2023-03-21T06:56:46.327Z,8.98
2023-03-21T07:01:57.780Z,9.03
2023-03-21T07:07:01.216Z,9.10
2023-03-21T07:12:04.586Z,9.11
2023-03-21T07:17:22.075Z,9.12
2023-03-21T07:22:24.888Z,9.23
2023-03-21T07:27:27.643Z,9.25
2023-03-21T07:32:35.546Z,9.33
2023-03-21T07:37:38.355Z,9.32
2023-03-21T07:42:42.680Z,9.37
2023-03-21T07:47:49.386Z,9.47
2023-03-21T07:52:52.159Z,9.39
2023-03-21T07:57:55.022Z,9.49
2023-03-21T08:02:59.670Z,9.58
2023-03-21T08:08:02.668Z,9.64
2023-03-21T08:13:05.527Z,9.61
2023-03-21T08:18:10.317Z,9.45
2023-03-21T08:23:13.886Z,9.49
2023-03-21T08:28:16.675Z,10.18
2023-03-21T08:33:21.442Z,10.14
2023-03-21T08:38:24.581Z,10.46
2023-03-21T08:43:27.574Z,10.10
2023-03-21T08:48:31.761Z,10.05
2023-03-21T08:53:34.597Z,10.18
2023-03-21T08:58:37.494Z,9.90
2023-03-21T09:03:41.622Z,9.70
2023-03-21T09:08:46.286Z,9.62
2023-03-21T09:13:49.115Z,9.71
2023-03-21T09:18:55.773Z,9.68
2023-03-21T09:23:59.962Z,9.57
2023-03-21T09:29:04.914Z,9.52
2023-03-21T09:34:09.596Z,9.64
2023-03-21T09:39:13.307Z,9.68
2023-03-21T09:44:31.563Z,9.58
2023-03-21T09:49:39.550Z,9.57
2023-03-21T09:54:44.703Z,9.59
2023-03-21T09:59:49.578Z,9.80
2023-03-21T10:04:53.825Z,9.82
2023-03-21T10:09:57.484Z,9.84
2023-03-21T10:15:02.134Z,10.02
2023-03-21T10:20:14.804Z,10.18
2023-03-21T10:25:19.337Z,10.19
2023-03-21T10:30:31.768Z,10.19
2023-03-21T10:35:37.742Z,10.13
2023-03-21T10:40:40.893Z,10.26
2023-03-21T10:45:46.822Z,10.09
2023-03-21T10:50:53.530Z,10.16
2023-03-21T10:55:58.254Z,10.24
2023-03-21T11:01:03.933Z,10.15
2023-03-21T11:06:11.722Z,10.29
2023-03-21T11:11:21.359Z,10.32
2023-03-21T11:16:27.388Z,10.33
2023-03-21T11:21:36.927Z,10.15
2023-03-21T11:26:43.419Z,10.16
2023-03-21T11:31:46.366Z,10.37
2023-03-21T11:36:51.813Z,10.38
2023-03-21T11:41:54.628Z,10.31
2023-03-21T11:46:57.800Z,10.28
2023-03-21T11:52:16.147Z,10.46
2023-03-21T11:57:23.684Z,10.40
2023-03-21T12:02:55.110Z,10.55
2023-03-21T12:08:04.258Z,10.52
2023-03-21T12:13:22.836Z,10.34
2023-03-21T12:18:50.218Z,10.43
2023-03-21T12:24:02.663Z,10.44
2023-03-21T12:29:13.363Z,10.46
2023-03-21T12:34:26.834Z,10.57
2023-03-21T12:39:33.381Z,10.68
2023-03-21T12:44:41.777Z,10.77
2023-03-21T12:49:48.792Z,10.91
2023-03-21T12:54:55.803Z,10.99
2023-03-21T13:00:02.994Z,10.81
2023-03-21T13:05:08.612Z,10.99
2023-03-21T13:10:16.465Z,11.06
2023-03-21T13:15:39.927Z,11.04
2023-03-21T13:20:45.935Z,11.17
2023-03-21T13:25:51.932Z,11.28
2023-03-21T13:30:54.833Z,11.35
2023-03-21T13:36:05.244Z,11.26
2023-03-21T13:41:14.464Z,11.36
2023-03-21T13:46:50.540Z,11.30
2023-03-21T13:51:56.640Z,11.33
2023-03-21T13:57:02.653Z,11.20
2023-03-21T14:02:21.952Z,11.32
2023-03-21T14:07:27.660Z,11.32
2023-03-21T14:12:38.015Z,11.16
2023-03-21T14:17:50.883Z,11.16
2023-03-21T14:22:53.967Z,11.06
2023-03-21T14:28:00.687Z,11.04
2023-03-21T14:33:06.940Z,11.01
2023-03-21T14:38:19.226Z,10.93
2023-03-21T14:43:24.770Z,10.76
2023-03-21T14:48:32.087Z,10.78
2023-03-21T14:53:38.203Z,10.80
2023-03-21T14:58:43.325Z,10.78
2023-03-21T15:03:46.486Z,10.80
2023-03-21T15:08:56.799Z,10.79
2023-03-21T15:14:02.225Z,10.83
2023-03-21T15:19:05.599Z,10.70
2023-03-21T15:24:13.947Z,10.75
2023-03-21T15:29:18.964Z,10.72
2023-03-21T15:34:23.836Z,10.73
2023-03-21T15:39:29.035Z,10.85
2023-03-21T15:44:35.898Z,10.83
2023-03-21T15:49:41.720Z,10.85
2023-03-21T15:54:47.813Z,10.80
2023-03-21T15:59:56.061Z,10.89
2023-03-21T16:04:59.813Z,10.82
2023-03-21T16:10:04.572Z,10.81
2023-03-21T16:15:09.937Z,10.87
2023-03-21T16:20:20.152Z,10.87
2023-03-21T16:25:23.159Z,10.82
2023-03-21T16:30:27.395Z,10.84
2023-03-21T16:35:30.274Z,10.84
2023-03-21T16:40:36.761Z,10.95
2023-03-21T16:45:41.594Z,10.88
2023-03-21T16:50:47.422Z,10.90
2023-03-21T16:55:50.399Z,10.96
2023-03-21T17:00:54.908Z,10.89
2023-03-21T17:05:57.730Z,10.85
2023-03-21T17:11:02.196Z,10.83
2023-03-21T17:16:08.117Z,10.91
2023-03-21T17:21:14.533Z,10.85
2023-03-21T17:26:19.666Z,10.76
2023-03-21T17:31:26.062Z,10.66
2023-03-21T17:36:29.894Z,10.57
2023-03-21T17:41:32.635Z,10.52
2023-03-21T17:46:37.876Z,10.43
2023-03-21T17:51:40.772Z,10.30
2023-03-21T17:56:43.580Z,10.18
2023-03-21T18:01:47.688Z,10.11
2023-03-21T18:06:51.143Z,10.12
2023-03-21T18:11:53.873Z,10.06
2023-03-21T18:16:58.037Z,10.02
2023-03-21T18:22:02.092Z,10.02
2023-03-21T18:27:05.024Z,10.03
2023-03-21T18:32:09.482Z,10.08
2023-03-21T18:37:13.545Z,10.07
2023-03-21T18:42:20.112Z,10.07
2023-03-21T18:47:27.784Z,10.08
2023-03-21T18:52:30.718Z,10.10
2023-03-21T18:57:37.890Z,10.10
2023-03-21T19:02:46.991Z,10.07
2023-03-21T19:07:50.805Z,10.08
2023-03-21T19:12:55.507Z,10.05
2023-03-21T19:23:22.655Z,10.06
2023-03-21T19:28:25.677Z,10.02
2023-03-21T19:33:29.884Z,9.98
2023-03-21T19:38:32.684Z,9.94
2023-03-21T19:43:35.647Z,9.85
2023-03-21T19:48:41.840Z,9.80
2023-03-21T19:53:44.620Z,9.69
2023-03-21T19:58:48.435Z,9.62
2023-03-21T20:03:52.886Z,9.58
2023-03-21T20:14:18.994Z,9.39
2023-03-21T20:19:23.087Z,9.36
2023-03-21T20:24:25.858Z,9.42
2023-03-21T20:35:02.686Z,9.49
2023-03-21T20:40:15.579Z,9.54
2023-03-21T20:45:18.664Z,9.52
2023-03-21T20:50:23.046Z,9.53
2023-03-21T20:55:25.890Z,9.55
2023-03-21T21:00:28.647Z,9.50
2023-03-21T21:05:34.879Z,9.46
2023-03-21T21:11:02.722Z,9.46
2023-03-21T21:16:01.902Z,9.43
2023-03-21T21:21:07.386Z,9.46
2023-03-21T21:26:11.912Z,9.48
2023-03-21T21:31:16.494Z,9.53
2023-03-21T21:36:21.531Z,9.51
2023-03-21T21:41:25.611Z,9.50
2023-03-21T21:46:28.476Z,9.51
2023-03-21T21:51:34.566Z,9.53
2023-03-21T21:56:38.282Z,9.54
2023-03-21T22:01:42.307Z,9.51
2023-03-21T22:06:47.585Z,9.51
2023-03-21T22:11:50.603Z,9.41
2023-03-21T22:16:53.364Z,9.38
2023-03-21T22:21:58.149Z,9.35
2023-03-21T22:27:01.243Z,9.26
2023-03-21T22:32:04.168Z,9.20
2023-03-21T22:37:08.296Z,9.12
2023-03-21T22:42:11.079Z,9.06
2023-03-21T22:47:13.819Z,9.04
2023-03-21T22:52:17.901Z,8.99
2023-03-21T22:57:21.067Z,8.98
2023-03-21T23:02:23.846Z,8.89
2023-03-21T23:07:28.008Z,8.85
2023-03-21T23:12:31.701Z,8.86
2023-03-21T23:17:35.509Z,8.81
2023-03-21T23:22:39.652Z,8.77
2023-03-21T23:27:42.444Z,8.73
2023-03-21T23:32:45.369Z,8.74
2023-03-21T23:37:52.391Z,8.67
2023-03-21T23:42:55.693Z,8.69
2023-03-21T23:47:58.485Z,8.67
2023-03-21T23:53:02.573Z,8.66
2023-03-21T23:58:05.560Z,8.67
